Time;durP1;ratioP1;P1;durP2;ratioP2;P2;SDS_P1;SDS_P2;PMS_P1;PMS_P2;Temp;Humidity;BMP_temperature;BMP_pressure;BME280_temperature;BME280_humidity;BME280_pressure;Samples;Min_cycle;Max_cycle;Signal;HPM_P1;HPM_P2
2022/06/18 00:01:50;;;;;;;2.80;2.50;;;;;;;13.94;81.01;99127.09;104661;1274;62049;-24
2022/06/18 00:04:19;;;;;;;6.10;2.70;;;;;;;13.83;80.82;99131.45;104575;1274;76752;-24
2022/06/18 00:07:00;;;;;;;3.80;2.70;;;;;;;13.54;81.78;99138.36;104654;1274;74956;-24
2022/06/18 00:09:36;;;;;;;4.60;2.90;;;;;;;13.17;83.31;99138.52;104610;1275;73716;-24
2022/06/18 00:15:10;;;;;;;3.30;2.10;;;;;;;13.46;82.43;99136.06;104635;1274;61782;-24
2022/06/18 00:17:37;;;;;;;2.60;2.40;;;;;;;13.57;81.06;99136.46;104522;1274;76563;-24
2022/06/18 00:20:06;;;;;;;3.20;2.80;;;;;;;13.37;81.64;99135.46;104746;1274;77248;-24
2022/06/18 00:22:33;;;;;;;2.70;2.40;;;;;;;13.19;82.19;99136.56;104750;1274;75798;-24
2022/06/18 00:25:00;;;;;;;9.80;3.00;;;;;;;12.97;82.91;99131.77;104629;1273;62788;-24
2022/06/18 00:27:28;;;;;;;1.70;1.60;;;;;;;12.79;83.46;99136.00;104703;1274;61315;-24
2022/06/18 00:29:55;;;;;;;2.00;1.80;;;;;;;13.15;82.54;99136.95;104686;1273;76613;-24
2022/06/18 00:32:22;;;;;;;3.60;2.40;;;;;;;13.53;80.55;99133.73;104684;1273;77098;-24
2022/06/18 00:34:49;;;;;;;4.30;2.40;;;;;;;13.40;80.37;99136.60;104777;1274;74706;-24
2022/06/18 00:37:17;;;;;;;3.30;2.80;;;;;;;13.13;81.35;99137.51;104570;1274;61925;-24
2022/06/18 00:39:45;;;;;;;3.30;2.70;;;;;;;12.89;81.87;99132.15;104648;1274;62048;-24
2022/06/18 00:42:31;;;;;;;6.90;1.80;;;;;;;12.61;83.55;99131.10;104623;1273;76573;-25
2022/06/18 00:44:59;;;;;;;2.30;2.10;;;;;;;12.95;82.29;99128.09;104451;1274;75923;-24
2022/06/18 00:47:41;;;;;;;4.00;2.70;;;;;;;13.23;80.49;99133.42;104614;1274;74395;-24
2022/06/18 00:50:38;;;;;;;3.20;2.50;;;;;;;13.09;80.75;99131.73;104696;1274;63088;-24
2022/06/18 00:53:14;;;;;;;2.30;2.10;;;;;;;12.84;81.72;99133.63;104734;1274;61958;-24
2022/06/18 00:56:14;;;;;;;6.40;3.00;;;;;;;12.51;82.55;99134.95;104742;1274;75457;-24
2022/06/18 00:59:10;;;;;;;3.40;1.60;;;;;;;12.32;83.46;99131.40;104544;1274;75318;-24
2022/06/18 01:01:41;;;;;;;2.80;2.20;;;;;;;12.84;81.68;99126.27;104422;1273;75533;-24
2022/06/18 01:04:25;;;;;;;3.20;2.60;;;;;;;13.04;80.12;99129.54;104679;1274;63048;-24
2022/06/18 01:06:57;;;;;;;5.20;2.50;;;;;;;12.76;80.93;99136.40;104743;1274;63111;-24
2022/06/18 01:09:25;;;;;;;5.30;2.70;;;;;;;12.39;82.37;99140.17;104589;1275;76876;-24
2022/06/18 01:11:52;;;;;;;3.40;2.10;;;;;;;12.08;84.00;99147.32;104619;1273;77077;-24
2022/06/18 01:14:20;;;;;;;3.70;2.00;;;;;;;11.90;85.37;99139.68;104612;1273;75710;-23
2022/06/18 01:16:47;;;;;;;2.80;2.20;;;;;;;12.31;84.04;99140.02;104563;1275;61484;-24
2022/06/18 01:19:23;;;;;;;4.20;2.10;;;;;;;12.63;82.31;99140.52;104718;1274;62970;-24
2022/06/18 01:22:23;;;;;;;3.60;2.20;;;;;;;12.63;81.59;99142.82;104566;1275;76691;-24
2022/06/18 01:24:51;;;;;;;4.70;2.60;;;;;;;12.35;82.73;99147.01;104755;1274;77075;-24
2022/06/18 01:27:18;;;;;;;1.90;1.60;;;;;;;12.08;83.93;99148.06;104830;1273;74359;-24
2022/06/18 01:29:47;;;;;;;3.20;1.90;;;;;;;12.42;82.95;99156.80;104642;1274;62760;-24
2022/06/18 01:32:15;;;;;;;2.70;2.10;;;;;;;12.75;81.22;99153.77;104852;1274;61979;-24
2022/06/18 01:34:44;;;;;;;3.70;2.20;;;;;;;12.57;81.62;99159.29;104651;1273;75578;-24
2022/06/18 01:37:12;;;;;;;3.70;2.50;;;;;;;12.42;81.91;99158.71;104634;1274;76828;-24
2022/06/18 01:39:42;;;;;;;4.00;2.60;;;;;;;12.18;82.75;99156.80;104730;1274;74503;-24
2022/06/18 01:42:33;;;;;;;2.10;1.60;;;;;;;12.00;83.56;99153.10;104481;1274;63684;-24
2022/06/18 01:45:06;;;;;;;2.50;1.70;;;;;;;12.42;82.30;99151.59;104645;1274;63171;-24
2022/06/18 01:47:56;;;;;;;5.20;2.20;;;;;;;12.55;81.28;99150.98;104552;1274;75445;-24
2022/06/18 01:50:31;;;;;;;5.00;2.30;;;;;;;12.37;81.51;99156.89;104654;1274;76991;-24
2022/06/18 01:53:19;;;;;;;6.80;2.60;;;;;;;12.06;82.75;99157.77;104646;1274;74200;-24
2022/06/18 01:55:59;;;;;;;5.10;2.50;;;;;;;11.80;84.46;99157.91;104849;1274;61755;-24
2022/06/18 01:58:46;;;;;;;2.00;1.60;;;;;;;11.64;85.08;99156.09;104684;1274;62789;-24
2022/06/18 02:01:25;;;;;;;2.70;2.10;;;;;;;12.19;82.57;99154.63;104856;1274;75646;-25
2022/06/18 02:03:54;;;;;;;2.60;2.20;;;;;;;12.45;80.95;99153.03;104850;1274;77026;-24
2022/06/18 02:06:21;;;;;;;2.90;2.30;;;;;;;12.33;80.69;99154.77;104929;1274;74099;-24
2022/06/18 02:08:49;;;;;;;4.30;2.60;;;;;;;12.00;81.36;99157.40;104826;1274;61818;-24
2022/06/18 02:11:17;;;;;;;3.30;2.50;;;;;;;11.68;82.61;99158.35;104707;1274;62762;-24
2022/06/18 02:13:47;;;;;;;5.90;1.70;;;;;;;11.44;84.05;99160.90;104646;1274;74749;-24
2022/06/18 02:16:21;;;;;;;2.00;1.80;;;;;;;11.87;82.89;99158.90;104854;1274;77064;-24
2022/06/18 02:18:48;;;;;;;2.10;1.90;;;;;;;12.23;80.98;99154.46;104576;1273;75527;-24
2022/06/18 02:21:20;;;;;;;3.40;2.20;;;;;;;12.10;81.30;99152.76;104579;1273;63192;-24
2022/06/18 02:23:51;;;;;;;2.40;2.20;;;;;;;11.92;82.11;99145.02;104488;1273;62763;-24
2022/06/18 02:26:19;;;;;;;4.70;2.60;;;;;;;11.74;83.15;99146.58;104679;1274;75519;-24
2022/06/18 02:28:46;;;;;;;2.10;1.50;;;;;;;11.69;83.54;99151.29;104512;1273;77036;-24
2022/06/18 02:31:17;;;;;;;2.60;2.00;;;;;;;12.25;81.15;99156.52;104586;1273;73332;-24
2022/06/18 02:33:49;;;;;;;3.80;2.20;;;;;;;12.72;79.05;99155.93;104590;1273;63120;-24
2022/06/18 02:36:28;;;;;;;3.00;2.40;;;;;;;12.78;78.26;99149.98;104629;1274;61136;-24
2022/06/18 02:39:15;;;;;;;3.90;2.80;;;;;;;12.51;79.04;99156.39;104839;1274;75564;-24
2022/06/18 02:41:42;;;;;;;2.80;2.50;;;;;;;12.23;80.53;99160.31;104663;1275;76750;-24
2022/06/18 02:44:11;;;;;;;3.00;2.00;;;;;;;12.23;80.92;99166.30;104711;1274;74085;-24
2022/06/18 02:46:40;;;;;;;3.40;1.80;;;;;;;12.91;78.43;99163.70;104664;1274;61154;-24
2022/06/18 02:49:08;;;;;;;5.10;2.40;;;;;;;13.40;76.27;99160.33;104698;1274;62194;-24
2022/06/18 02:51:37;;;;;;;2.80;2.40;;;;;;;13.40;75.69;99161.02;104637;1274;76271;-24
2022/06/18 02:54:04;;;;;;;4.10;2.30;;;;;;;13.45;75.36;99158.52;104520;1273;75884;-24
2022/06/18 02:56:32;;;;;;;2.70;1.90;;;;;;;13.43;75.56;99158.45;104282;1274;478461;-24
2022/06/18 02:58:59;;;;;;;3.50;1.20;;;;;;;13.51;75.48;99159.70;104622;1273;64701;-24
2022/06/18 03:01:26;;;;;;;2.30;1.60;;;;;;;14.10;74.28;99164.67;104536;1273;63063;-24
2022/06/18 03:03:56;;;;;;;2.40;1.60;;;;;;;14.73;71.24;99161.88;104519;1273;76719;-25
2022/06/18 03:06:27;;;;;;;3.20;2.30;;;;;;;14.85;70.78;99159.58;104581;1274;77071;-24
2022/06/18 03:08:55;;;;;;;2.70;2.30;;;;;;;14.63;70.75;99164.06;104685;1274;74614;-24
2022/06/18 03:14:10;;;;;;;2.50;2.30;;;;;;;14.39;71.79;99175.75;104758;1274;63122;-24
2022/06/18 03:16:38;;;;;;;2.10;1.40;;;;;;;14.16;72.81;99176.08;104468;1273;75925;-24
2022/06/18 03:19:05;;;;;;;3.00;1.70;;;;;;;14.63;71.80;99171.79;104633;1274;75839;-24
2022/06/18 03:21:34;;;;;;;3.20;2.10;;;;;;;15.08;69.75;99171.30;104599;1273;75369;-24
2022/06/18 03:24:03;;;;;;;4.30;1.90;;;;;;;14.88;70.27;99172.86;104614;1273;62305;-24
2022/06/18 03:26:31;;;;;;;2.80;1.90;;;;;;;14.91;70.39;99167.70;104529;1274;63102;-24
2022/06/18 03:28:58;;;;;;;2.30;2.10;;;;;;;14.86;70.31;99167.29;104568;1273;75692;-24
2022/06/18 03:31:26;;;;;;;3.90;2.40;;;;;;;14.78;70.83;99172.16;104664;1274;75883;-24
2022/06/18 03:33:53;;;;;;;2.90;2.10;;;;;;;14.73;71.26;99168.09;104652;1274;75908;-24
2022/06/18 03:36:20;;;;;;;1.80;1.50;;;;;;;14.79;71.58;99173.27;104674;1274;63677;-24
2022/06/18 03:38:49;;;;;;;3.70;1.80;;;;;;;15.42;69.56;99169.14;104727;1272;63080;-24
2022/06/18 03:41:17;;;;;;;3.20;2.00;;;;;;;15.88;68.02;99168.30;104539;1273;75552;-24
2022/06/18 03:43:45;;;;;;;3.60;2.20;;;;;;;15.93;67.85;99175.83;104789;1272;76737;-24
2022/06/18 03:46:14;;;;;;;2.40;2.10;;;;;;;15.89;67.41;99179.55;104757;1271;73528;-24
2022/06/18 03:48:46;;;;;;;2.60;2.20;;;;;;;15.85;68.37;99182.79;104655;1271;63386;-24
2022/06/18 03:51:14;;;;;;;4.50;2.00;;;;;;;15.61;68.45;99182.02;104876;1273;63157;-24
2022/06/18 03:53:42;;;;;;;3.80;2.50;;;;;;;15.46;69.53;99185.75;104670;1274;76664;-24
2022/06/18 03:56:15;;;;;;;4.90;2.40;;;;;;;15.46;69.55;99186.95;104712;1271;76954;-24
2022/06/18 03:58:42;;;;;;;2.40;1.80;;;;;;;15.40;70.08;99192.80;104859;1271;75385;-24
2022/06/18 04:01:13;;;;;;;2.00;1.80;;;;;;;15.87;68.81;99191.85;104798;1271;61152;-24
2022/06/18 04:03:42;;;;;;;2.40;1.90;;;;;;;16.29;66.82;99197.71;104705;1273;61802;-24
2022/06/18 04:06:16;;;;;;;2.70;2.10;;;;;;;16.14;67.20;99199.09;104737;1274;74528;-24
2022/06/18 04:08:45;;;;;;;4.40;2.30;;;;;;;16.15;67.72;99204.91;104934;1271;77011;-24
2022/06/18 04:11:19;;;;;;;3.00;2.10;;;;;;;16.09;68.25;99210.50;104718;1271;75353;-24
2022/06/18 04:13:47;;;;;;;3.70;2.30;;;;;;;15.95;68.40;99212.45;104772;1271;62033;-24
2022/06/18 04:16:35;;;;;;;5.20;2.30;;;;;;;15.95;68.74;99215.96;104732;1271;62944;-24
2022/06/18 04:19:14;;;;;;;5.70;2.20;;;;;;;16.03;68.24;99217.55;104765;1271;75327;-24
2022/06/18 04:22:58;;;;;;;3.00;2.00;;;;;;;15.89;68.76;99217.91;101541;1309;600446;-23
2022/06/18 04:25:28;;;;;;;2.30;2.10;;;;;;;16.01;69.19;99221.48;104275;1284;63322;-23
2022/06/18 04:27:58;;;;;;;2.30;1.40;;;;;;;16.16;68.89;99220.80;104283;1284;62015;-23
2022/06/18 04:30:29;;;;;;;2.10;1.60;;;;;;;16.98;66.89;99223.42;103962;1286;74757;-23
2022/06/18 04:33:08;;;;;;;2.70;1.90;;;;;;;17.72;63.68;99224.31;104258;1283;77047;-23
2022/06/18 04:35:41;;;;;;;3.00;1.70;;;;;;;18.05;62.50;99226.09;104028;1285;356083;-23
2022/06/18 04:38:11;;;;;;;5.10;1.90;;;;;;;18.09;62.69;99226.73;104433;1281;63071;-23
2022/06/18 04:40:58;;;;;;;4.30;2.40;;;;;;;18.04;62.84;99225.98;104345;1280;63118;-23
2022/06/18 04:43:34;;;;;;;3.60;2.70;;;;;;;17.72;62.85;99224.13;104509;1280;75188;-23
2022/06/18 04:46:02;;;;;;;2.70;2.40;;;;;;;17.44;64.78;99220.16;104522;1280;76004;-23
2022/06/18 04:48:30;;;;;;;4.00;2.70;;;;;;;17.22;65.06;99218.66;104492;1280;73190;-23
2022/06/18 04:50:57;;;;;;;3.80;2.70;;;;;;;17.28;65.89;99221.19;104577;1280;63333;-22
2022/06/18 04:53:26;;;;;;;2.90;2.50;;;;;;;17.11;65.75;99221.19;104607;1280;61092;-23
2022/06/18 04:56:01;;;;;;;3.10;2.30;;;;;;;16.97;66.21;99224.39;104450;1280;75785;-22
2022/06/18 04:58:30;;;;;;;3.40;2.40;;;;;;;17.07;66.94;99230.09;104432;1280;76958;-23
2022/06/18 05:00:59;;;;;;;3.20;2.80;;;;;;;17.26;66.49;99229.58;104557;1281;74096;-23
2022/06/18 05:03:58;;;;;;;2.60;2.40;;;;;;;17.50;66.06;99231.98;104043;1279;62982;-22
2022/06/18 05:06:46;;;;;;;3.70;2.60;;;;;;;17.62;66.19;99230.55;104101;1280;62343;-23
2022/06/18 05:09:32;;;;;;;3.40;2.10;;;;;;;17.73;65.94;99232.67;104492;1280;75842;-23
2022/06/18 05:12:18;;;;;;;2.60;1.90;;;;;;;17.96;63.90;99237.19;104440;1278;76078;-22
2022/06/18 05:14:45;;;;;;;5.70;2.20;;;;;;;17.84;64.13;99239.61;104544;1280;74588;-22
2022/06/18 05:17:20;;;;;;;2.30;2.10;;;;;;;17.65;64.45;99241.22;104577;1278;63121;-23
2022/06/18 05:19:49;;;;;;;2.60;2.20;;;;;;;17.80;65.95;99249.69;104473;1280;61920;-22
2022/06/18 05:22:16;;;;;;;3.70;2.00;;;;;;;17.78;64.97;99250.25;104312;1280;74777;-22
2022/06/18 05:24:44;;;;;;;2.40;2.10;;;;;;;18.08;64.40;99247.75;104328;1280;77107;-22
2022/06/18 05:27:34;;;;;;;5.00;2.30;;;;;;;18.12;63.74;99247.24;104220;1280;74496;-22
2022/06/18 05:30:30;;;;;;;2.90;1.90;;;;;;;17.95;63.88;99249.10;104079;1280;61960;-22
2022/06/18 05:33:00;;;;;;;4.90;2.60;;;;;;;18.08;64.11;99255.30;104231;1281;63168;-22
2022/06/18 05:35:31;;;;;;;1.70;1.50;;;;;;;18.19;62.88;99253.21;104490;1276;74752;-24
2022/06/18 05:37:58;;;;;;;3.60;1.70;;;;;;;18.26;63.26;99255.41;104509;1281;75974;-24
2022/06/18 05:40:25;;;;;;;2.00;1.80;;;;;;;18.40;63.57;99259.63;104704;1277;74893;-22
2022/06/18 05:42:54;;;;;;;4.60;1.90;;;;;;;18.39;62.07;99259.40;104610;1277;62800;-23
2022/06/18 05:45:22;;;;;;;4.20;2.50;;;;;;;18.18;63.05;99255.87;104704;1277;61532;-23
2022/06/18 05:47:50;;;;;;;2.80;1.80;;;;;;;18.02;64.29;99255.17;104503;1277;74825;-23
2022/06/18 05:50:18;;;;;;;2.00;1.90;;;;;;;18.36;63.16;99260.07;104644;1277;77003;-23
2022/06/18 05:52:47;;;;;;;3.30;2.10;;;;;;;18.63;62.49;99260.98;104271;1275;75363;-23
2022/06/18 05:55:39;;;;;;;3.20;1.90;;;;;;;18.77;61.76;99259.29;104815;1274;63075;-23
2022/06/18 05:58:26;;;;;;;3.00;1.90;;;;;;;18.72;61.80;99262.58;104548;1278;61757;-23
2022/06/18 06:01:01;;;;;;;2.50;2.20;;;;;;;18.73;62.97;99264.58;104824;1275;74353;-24
2022/06/18 06:03:30;;;;;;;2.10;1.90;;;;;;;18.83;61.94;99263.88;104690;1277;75294;-23
2022/06/18 06:05:57;;;;;;;2.00;1.70;;;;;;;18.76;62.18;99264.45;104631;1275;75420;-23
2022/06/18 06:08:25;;;;;;;4.90;2.10;;;;;;;18.99;61.68;99264.55;104536;1277;61945;-23
2022/06/18 06:13:38;;;;;;;2.90;1.80;;;;;;;19.19;60.48;99266.95;104391;1277;74686;-23
2022/06/18 06:16:06;;;;;;;2.70;1.80;;;;;;;19.36;59.37;99263.77;104480;1275;77038;-22
2022/06/18 06:18:33;;;;;;;2.40;1.60;;;;;;;19.41;59.50;99266.48;104426;1276;75439;-23
2022/06/18 06:21:01;;;;;;;1.80;1.50;;;;;;;19.70;58.68;99266.30;104689;1275;61780;-23
2022/06/18 06:23:29;;;;;;;2.80;2.10;;;;;;;19.37;59.12;99267.77;104559;1277;63041;-23
2022/06/18 06:25:56;;;;;;;2.50;1.70;;;;;;;19.04;60.67;99269.92;104650;1274;75839;-23
2022/06/18 06:28:26;;;;;;;3.70;1.80;;;;;;;19.72;60.36;99271.90;104480;1275;76922;-23
2022/06/18 06:30:53;;;;;;;3.60;2.40;;;;;;;19.61;58.50;99265.74;104431;1280;74291;-23
2022/06/18 06:33:21;;;;;;;6.40;2.20;;;;;;;19.52;59.19;99267.55;104345;1277;61436;-23
2022/06/18 06:35:49;;;;;;;1.90;1.70;;;;;;;19.88;58.42;99269.55;104488;1276;63169;-23
2022/06/18 06:38:16;;;;;;;6.70;2.10;;;;;;;20.12;56.83;99267.30;104643;1276;75778;-22
2022/06/18 06:40:44;;;;;;;2.00;1.60;;;;;;;20.25;56.78;99267.13;104575;1277;76975;-23
2022/06/18 06:43:12;;;;;;;4.00;1.60;;;;;;;20.57;55.96;99266.94;104634;1277;74149;-22
2022/06/18 06:45:40;;;;;;;2.10;1.30;;;;;;;20.60;55.97;99264.27;104415;1275;62811;-22
2022/06/18 06:48:07;;;;;;;2.00;1.40;;;;;;;20.58;55.93;99258.99;104731;1277;61931;-22
2022/06/18 06:50:34;;;;;;;2.80;1.40;;;;;;;20.42;54.22;99266.16;104726;1275;73969;-23
2022/06/18 06:53:02;;;;;;;4.30;1.50;;;;;;;20.38;54.49;99262.77;104681;1277;77050;-22
2022/06/18 06:58:18;;;;;;;2.10;1.30;;;;;;;20.52;55.36;99258.14;104386;1278;61205;-22
2022/06/18 07:00:48;;;;;;;2.40;1.20;;;;;;;20.60;55.64;99260.36;104648;1277;63071;-23
2022/06/18 07:03:17;;;;;;;3.00;1.60;;;;;;;20.46;54.83;99262.98;104632;1275;75863;-22
2022/06/18 07:05:45;;;;;;;1.40;1.30;;;;;;;20.25;54.53;99257.60;104566;1277;76981;-22
2022/06/18 07:08:12;;;;;;;1.70;1.30;;;;;;;20.29;54.54;99261.80;104757;1275;73417;-23
2022/06/18 07:10:40;;;;;;;2.90;1.50;;;;;;;20.38;55.34;99260.13;104597;1278;63191;-22
2022/06/18 07:13:07;;;;;;;1.90;1.10;;;;;;;20.46;56.38;99260.27;104685;1278;61874;-23
2022/06/18 07:15:34;;;;;;;2.30;1.20;;;;;;;20.53;54.79;99256.09;104698;1275;75509;-22
2022/06/18 07:18:03;;;;;;;1.50;1.10;;;;;;;20.56;54.86;99259.09;104710;1276;75690;-23
2022/06/18 07:20:30;;;;;;;3.00;1.20;;;;;;;20.32;55.42;99257.36;104622;1276;74387;-23
2022/06/18 07:22:58;;;;;;;1.80;1.10;;;;;;;20.23;54.88;99263.42;104579;1275;63177;-23
2022/06/18 07:25:25;;;;;;;1.30;1.20;;;;;;;20.10;55.39;99263.37;104652;1277;61642;-22
2022/06/18 07:27:54;;;;;;;2.40;1.20;;;;;;;20.27;54.82;99265.88;104640;1276;75478;-23
2022/06/18 07:30:21;;;;;;;1.20;1.10;;;;;;;20.55;51.67;99264.66;104705;1277;75967;-22
2022/06/18 07:32:49;;;;;;;1.90;1.10;;;;;;;20.31;52.98;99269.39;104766;1277;75396;-22
2022/06/18 07:35:25;;;;;;;1.70;1.30;;;;;;;20.41;52.77;99268.62;104690;1275;63079;-23
2022/06/18 07:37:54;;;;;;;5.70;1.10;;;;;;;20.58;53.31;99269.11;104697;1277;63119;-22
2022/06/18 07:40:21;;;;;;;1.60;1.00;;;;;;;20.80;52.34;99269.84;104591;1275;75710;-23
2022/06/18 07:42:48;;;;;;;1.80;1.40;;;;;;;20.94;51.61;99266.50;104293;1277;77024;-23
2022/06/18 07:45:18;;;;;;;2.20;1.10;;;;;;;21.05;51.25;99268.08;104403;1275;75487;-23
2022/06/18 07:47:45;;;;;;;1.30;1.00;;;;;;;21.42;50.95;99266.38;104305;1277;63069;-22
2022/06/18 07:50:14;;;;;;;3.30;1.10;;;;;;;21.32;50.05;99267.73;104605;1275;62309;-23
2022/06/18 07:52:41;;;;;;;2.20;0.90;;;;;;;21.05;49.31;99266.61;104491;1277;74682;-23
2022/06/18 07:55:20;;;;;;;1.40;1.10;;;;;;;21.11;49.90;99275.97;104634;1274;76219;-23
2022/06/18 07:57:49;;;;;;;2.00;1.00;;;;;;;21.26;48.77;99273.81;104656;1274;74568;-24
2022/06/18 08:00:21;;;;;;;1.00;0.90;;;;;;;21.21;49.00;99272.62;104591;1278;62303;-23
2022/06/18 08:02:49;;;;;;;1.90;1.10;;;;;;;21.65;49.63;99265.68;104654;1278;63085;-23
2022/06/18 08:05:22;;;;;;;1.30;1.10;;;;;;;21.82;50.41;99260.92;104642;1277;74708;-24
2022/06/18 08:07:49;;;;;;;1.00;0.90;;;;;;;21.62;48.53;99263.63;104264;1274;77145;-24
2022/06/18 08:10:37;;;;;;;1.60;1.00;;;;;;;21.81;49.22;99263.20;104488;1277;74283;-24
2022/06/18 08:13:04;;;;;;;2.00;1.00;;;;;;;21.87;48.19;99265.98;104700;1274;62034;-24
2022/06/18 08:15:39;;;;;;;2.40;1.00;;;;;;;21.94;47.43;99261.73;104759;1274;61863;-24
2022/06/18 08:18:06;;;;;;;1.00;0.80;;;;;;;22.12;47.65;99265.64;104627;1278;74369;-24
2022/06/18 08:20:54;;;;;;;1.40;0.90;;;;;;;21.78;47.75;99262.98;104422;1277;76994;-24
2022/06/18 08:23:21;;;;;;;1.80;1.00;;;;;;;21.70;48.39;99271.59;104687;1275;75191;-24
2022/06/18 08:25:49;;;;;;;1.50;1.20;;;;;;;21.82;48.72;99268.79;104698;1274;62106;-24
2022/06/18 08:28:16;;;;;;;2.80;1.10;;;;;;;21.61;47.33;99273.19;105049;1274;63046;-24
2022/06/18 08:30:44;;;;;;;1.20;1.00;;;;;;;21.43;47.58;99272.42;105065;1272;74551;-24
2022/06/18 08:33:11;;;;;;;3.00;1.10;;;;;;;21.37;46.80;99272.98;105050;1274;76462;-26
2022/06/18 08:35:39;;;;;;;3.00;1.30;;;;;;;21.15;48.26;99270.72;105112;1271;74098;-23
2022/06/18 08:38:07;;;;;;;1.30;0.80;;;;;;;21.39;46.11;99267.02;105080;1271;62179;-23
2022/06/18 08:40:34;;;;;;;1.90;1.00;;;;;;;21.95;46.23;99264.77;104495;1276;63437;-25
2022/06/18 08:43:10;;;;;;;2.10;1.10;;;;;;;21.61;45.33;99263.68;104792;1272;75303;-23
2022/06/18 08:45:42;;;;;;;1.20;0.90;;;;;;;21.93;47.12;99263.58;104930;1274;76333;-23
2022/06/18 08:49:10;;;;;;;3.40;1.00;;;;;;;22.66;46.76;99263.54;104554;1272;75436;-24
2022/06/18 08:52:19;;;;;;;3.00;0.80;;;;;;;22.54;45.42;99267.30;104261;1277;62075;-23
2022/06/18 08:55:00;;;;;;;1.60;0.80;;;;;;;22.69;43.89;99269.23;104303;1278;61188;-24
2022/06/18 08:57:48;;;;;;;3.80;1.00;;;;;;;22.47;43.46;99266.30;104950;1271;75403;-22
2022/06/18 09:00:29;;;;;;;1.80;1.30;;;;;;;22.81;44.00;99269.48;104839;1272;76814;-25
2022/06/18 09:03:09;;;;;;;1.50;1.00;;;;;;;23.29;44.77;99265.77;104881;1271;75425;-23
2022/06/18 09:06:03;;;;;;;2.70;1.10;;;;;;;22.53;43.34;99265.19;104631;1271;61209;-22
2022/06/18 09:08:52;;;;;;;1.00;0.80;;;;;;;22.54;43.84;99266.40;104790;1271;62116;-23
2022/06/18 09:11:20;;;;;;;0.90;0.60;;;;;;;22.17;44.44;99264.30;105027;1271;75565;-24
2022/06/18 09:13:57;;;;;;;1.00;0.90;;;;;;;21.84;45.42;99268.33;104982;1271;75928;-24
2022/06/18 09:16:31;;;;;;;1.20;0.90;;;;;;;21.66;45.84;99268.19;104664;1271;74890;-24
2022/06/18 09:19:00;;;;;;;1.10;0.70;;;;;;;21.70;46.91;99264.98;104646;1274;61772;-25
2022/06/18 09:21:55;;;;;;;1.00;0.90;;;;;;;22.18;44.19;99264.33;104695;1272;63279;-25
2022/06/18 09:24:26;;;;;;;0.80;0.80;;;;;;;22.69;45.46;99266.98;104954;1274;74729;-24
2022/06/18 09:26:59;;;;;;;2.10;1.00;;;;;;;23.08;44.37;99264.02;104638;1271;77361;-22
2022/06/18 09:29:35;;;;;;;2.00;0.90;;;;;;;23.23;42.94;99264.91;104846;1273;75454;-23
2022/06/18 09:32:25;;;;;;;1.30;0.80;;;;;;;23.00;40.53;99265.42;104764;1272;61757;-23
2022/06/18 09:35:29;;;;;;;2.30;1.60;;;;;;;23.18;41.11;99270.00;104812;1271;61900;-23
2022/06/18 09:37:58;;;;;;;6.20;1.50;;;;;;;23.75;40.36;99259.85;105039;1273;76557;-23
2022/06/18 09:40:30;;;;;;;1.90;1.10;;;;;;;23.84;39.07;99258.61;104994;1274;75868;-23
2022/06/18 09:43:26;;;;;;;0.60;0.60;;;;;;;23.55;38.99;99258.80;105026;1271;75365;-23
2022/06/18 09:46:01;;;;;;;2.00;0.70;;;;;;;24.14;39.66;99258.63;105168;1271;61943;-23
2022/06/18 09:48:28;;;;;;;1.60;0.80;;;;;;;24.17;39.16;99256.80;104899;1271;62009;-23
2022/06/18 09:51:02;;;;;;;1.00;0.80;;;;;;;23.95;40.02;99256.15;104942;1271;75348;-23
2022/06/18 09:53:35;;;;;;;0.80;0.70;;;;;;;23.85;38.31;99252.88;105124;1271;76373;-23
2022/06/18 09:56:14;;;;;;;2.70;0.80;;;;;;;24.18;37.24;99247.15;104619;1274;74407;-23
2022/06/18 09:58:46;;;;;;;3.20;1.00;;;;;;;23.86;39.05;99247.40;104567;1271;62823;-23
2022/06/18 10:01:17;;;;;;;2.30;0.80;;;;;;;23.33;39.81;99248.27;104692;1271;62030;-23
2022/06/18 10:06:52;;;;;;;0.80;0.70;;;;;;;23.44;38.25;99235.55;104700;1271;77057;-23
2022/06/18 10:09:43;;;;;;;0.80;0.80;;;;;;;23.83;38.31;99237.73;104607;1273;74308;-23
2022/06/18 10:12:17;;;;;;;1.10;0.80;;;;;;;24.18;37.16;99234.10;105018;1271;61930;-25
2022/06/18 10:14:46;;;;;;;1.20;0.80;;;;;;;24.61;37.79;99232.64;105044;1271;62779;-25
2022/06/18 10:17:30;;;;;;;1.00;0.70;;;;;;;24.67;35.40;99231.59;104694;1271;75188;-25
2022/06/18 10:19:57;;;;;;;1.40;0.70;;;;;;;24.70;35.46;99233.38;104683;1272;77346;-24
2022/06/18 10:22:48;;;;;;;2.50;0.80;;;;;;;24.81;34.69;99229.89;104829;1272;75165;-25
2022/06/18 10:25:36;;;;;;;1.00;0.90;;;;;;;24.30;36.94;99233.61;104879;1271;62043;-25
2022/06/18 10:28:16;;;;;;;1.20;0.70;;;;;;;23.65;37.15;99239.70;104815;1271;63388;-26
2022/06/18 10:31:04;;;;;;;0.90;0.90;;;;;;;23.90;36.93;99236.08;104803;1271;75624;-27
2022/06/18 10:34:00;;;;;;;1.70;0.60;;;;;;;24.41;36.66;99230.40;105101;1271;75304;-26
2022/06/18 10:36:36;;;;;;;1.90;1.20;;;;;;;24.80;35.40;99238.17;105077;1271;74486;-26
2022/06/18 10:39:25;;;;;;;1.50;0.90;;;;;;;24.82;35.07;99239.96;104827;1274;63171;-26
2022/06/18 10:42:08;;;;;;;2.00;1.20;;;;;;;24.62;35.15;99235.42;105020;1271;61824;-24
2022/06/18 10:44:42;;;;;;;;;;;;;;;23.32;35.96;99237.66;104727;1274;77088;-26
2022/06/18 10:47:12;;;;;;;5.20;0.80;;;;;;;23.35;37.27;99237.84;105113;1272;77099;-26
2022/06/18 10:49:40;;;;;;;5.00;2.60;;;;;;;23.84;36.09;99233.26;104761;1271;75415;-25
2022/06/18 10:52:17;;;;;;;2.10;1.10;;;;;;;24.40;36.28;99230.28;104731;1272;62827;-24
2022/06/18 10:54:45;;;;;;;1.30;0.70;;;;;;;24.52;34.34;99227.57;104694;1274;61999;-24
2022/06/18 10:57:24;;;;;;;0.60;0.60;;;;;;;24.20;33.65;99215.34;105051;1271;75663;-24
2022/06/18 10:59:52;;;;;;;0.70;0.70;;;;;;;24.04;36.05;99227.98;104805;1271;77454;-24
2022/06/18 11:02:32;;;;;;;1.30;0.90;;;;;;;24.37;34.76;99225.02;105079;1270;74064;-24
2022/06/18 11:05:02;;;;;;;4.70;2.50;;;;;;;24.26;34.42;99225.92;105071;1271;61945;-25
2022/06/18 11:07:31;;;;;;;2.10;0.90;;;;;;;24.45;35.11;99225.80;104909;1271;63089;-26
2022/06/18 11:10:07;;;;;;;0.80;0.60;;;;;;;24.99;33.01;99223.76;105062;1271;76715;-24
2022/06/18 11:12:37;;;;;;;3.30;1.20;;;;;;;25.16;33.22;99223.80;104737;1271;77316;-24
2022/06/18 11:15:26;;;;;;;1.30;0.70;;;;;;;24.89;34.72;99215.75;104782;1271;75473;-26
2022/06/18 11:17:53;;;;;;;1.10;0.90;;;;;;;24.21;34.91;99230.46;104820;1273;61984;-25
2022/06/18 11:20:23;;;;;;;1.00;0.60;;;;;;;24.14;34.04;99228.45;105042;1270;61993;-26
2022/06/18 11:22:58;;;;;;;3.20;0.90;;;;;;;24.65;32.96;99219.72;104826;1271;75438;-24
2022/06/18 11:25:31;;;;;;;1.10;0.60;;;;;;;24.49;34.49;99222.17;104676;1270;75760;-26
2022/06/18 11:28:00;;;;;;;1.50;0.80;;;;;;;24.14;34.77;99222.89;104720;1271;74236;-21
2022/06/18 11:30:40;;;;;;;2.30;0.80;;;;;;;24.19;33.88;99224.07;104787;1272;63116;-26
2022/06/18 11:33:26;;;;;;;1.10;0.80;;;;;;;24.36;32.56;99230.23;104664;1272;63068;-24
2022/06/18 11:35:54;;;;;;;4.80;0.80;;;;;;;24.61;32.75;99224.61;104671;1271;75714;-24
2022/06/18 11:38:30;;;;;;;0.80;0.70;;;;;;;24.57;32.56;99225.54;105027;1271;77149;-24
2022/06/18 11:41:00;;;;;;;2.10;0.70;;;;;;;24.52;33.96;99218.15;104556;1271;75436;-25
2022/06/18 11:43:47;;;;;;;2.20;0.90;;;;;;;24.27;34.97;99214.82;104766;1273;63086;-23
2022/06/18 11:46:37;;;;;;;3.20;0.80;;;;;;;24.31;35.17;99214.92;105040;1273;62145;-23
2022/06/18 11:49:11;;;;;;;0.70;0.60;;;;;;;24.25;33.79;99217.65;104992;1271;75526;-24
2022/06/18 11:51:45;;;;;;;0.90;0.80;;;;;;;24.38;34.54;99221.61;104822;1270;75681;-22
2022/06/18 11:54:59;;;;;;;1.40;0.80;;;;;;;24.63;34.99;99219.82;104396;1274;74479;-23
2022/06/18 11:57:26;;;;;;;1.40;0.60;;;;;;;24.42;33.98;99217.19;104285;1279;62230;-23
2022/06/18 12:00:03;;;;;;;1.00;0.60;;;;;;;24.48;32.09;99216.54;104291;1279;62118;-23
2022/06/18 12:02:44;;;;;;;0.80;0.70;;;;;;;24.66;32.30;99214.48;104584;1271;75724;-23
2022/06/18 12:05:17;;;;;;;4.40;2.90;;;;;;;24.69;31.51;99209.10;104848;1271;76917;-22
2022/06/18 12:07:51;;;;;;;1.80;0.90;;;;;;;24.52;32.67;99207.91;104717;1271;75223;-23
2022/06/18 12:10:19;;;;;;;0.80;0.80;;;;;;;24.44;33.29;99205.00;104793;1271;61816;-23